ěÝzenÝ letovÚho provozu ╚eskÚ republiky
Letiste: LKLN Aktualizace: 10.08.2020 05:56:24  UTC
 METAR LKLN 10.08. 06:00 ...
METAR LKLN 100600Z AUTO VRB01KT CAVOK 19/16 Q1018=